Weeki Wachee, Florida
Current Conditions -  °F | °C
As of 4:53 AM on Thursday 23 Oct 2014 (Local Time) from KBKV Reporting Station
Clear Clear  
Wind Chill: 59°   Ceiling: Unl
Heat Index: 59°   Visibility: 10mi
Dew Point: 54°   Wind: 7mph
Humidity: 83%   Direction: 40°NE
Pressure: 29.99"   Gusts: NA
Location:  28.4982°N, 82.633°W
Report Text: KBKV 230853Z AUTO 04006KT 10SM CLR 15/12 A2999 RMK AO2 SLP154 T01500122 55005
Loading
Personal Weather Stations






























Interactive Weather Map
Tropical Storm Tracking
New forecast layout! Learn more

10-Day Weather Forecast

Advertisements
Track Severe Weather on mobile